createdAt,value
2023-02-17T00:00:09.101Z,94571.09
2023-02-17T00:01:20.970Z,94574.47
2023-02-17T00:02:17.651Z,94566.00
2023-02-17T00:03:14.218Z,94527.94
2023-02-17T00:04:11.656Z,94562.31
2023-02-17T00:05:08.288Z,94568.03
2023-02-17T00:06:09.026Z,94566.50
2023-02-17T00:07:05.663Z,94572.59
2023-02-17T00:08:03.286Z,94511.53
2023-02-17T00:09:00.438Z,94569.00
2023-02-17T00:09:58.437Z,94573.81
2023-02-17T00:10:57.698Z,94577.81
2023-02-17T00:11:54.430Z,94578.06
2023-02-17T00:12:51.021Z,94581.00
2023-02-17T00:13:48.010Z,94553.34
2023-02-17T00:14:44.632Z,94582.19
2023-02-17T00:15:41.324Z,94577.34
2023-02-17T00:16:38.005Z,94566.50
2023-02-17T00:17:34.633Z,94575.69
2023-02-17T00:18:31.181Z,94570.47
2023-02-17T00:19:27.787Z,94573.38
2023-02-17T00:20:24.407Z,94478.25
2023-02-17T00:21:24.002Z,94552.22
2023-02-17T00:22:20.611Z,94571.66
2023-02-17T00:23:17.827Z,94565.88
2023-02-17T00:24:14.373Z,94565.59
2023-02-17T00:25:10.974Z,94530.69
2023-02-17T00:26:08.597Z,94567.66
2023-02-17T00:27:05.749Z,94567.66
2023-02-17T00:28:05.592Z,94562.09
2023-02-17T00:29:02.475Z,94555.81
2023-02-17T00:29:59.146Z,94440.66
2023-02-17T00:30:55.810Z,94556.75
2023-02-17T00:31:54.101Z,94558.91
2023-02-17T00:32:50.756Z,94557.38
2023-02-17T00:33:48.082Z,94557.28
2023-02-17T00:34:44.699Z,94550.38
2023-02-17T00:35:41.715Z,94529.03
2023-02-17T00:36:39.088Z,94553.66
2023-02-17T00:37:35.921Z,94506.03
2023-02-17T00:38:32.991Z,94548.34
2023-02-17T00:39:29.846Z,94551.03
2023-02-17T00:40:26.542Z,94546.09
2023-02-17T00:41:24.732Z,94557.66
2023-02-17T00:42:21.345Z,94542.00
2023-02-17T00:43:17.909Z,94546.84
2023-02-17T00:44:20.446Z,94488.78
2023-02-17T00:45:17.413Z,94553.31
2023-02-17T00:46:14.721Z,94546.66
2023-02-17T00:47:11.340Z,94518.53
2023-02-17T00:48:07.987Z,94553.69
2023-02-17T00:49:04.645Z,94555.75
2023-02-17T00:50:01.290Z,94543.66
2023-02-17T00:50:58.113Z,94548.09
2023-02-17T00:51:54.828Z,94537.16
2023-02-17T00:52:51.440Z,94547.19
2023-02-17T00:53:48.097Z,94537.19
2023-02-17T00:54:44.682Z,94545.19
2023-02-17T00:55:41.754Z,94510.91
2023-02-17T00:56:38.652Z,94551.47
2023-02-17T00:57:35.299Z,94555.75
2023-02-17T00:58:31.939Z,94545.81
2023-02-17T00:59:28.574Z,94548.84
2023-02-17T01:00:25.406Z,94523.53
2023-02-17T01:01:22.047Z,94547.31
2023-02-17T01:02:18.853Z,94543.84
2023-02-17T01:03:15.450Z,94554.09
2023-02-17T01:04:12.097Z,94492.25
2023-02-17T01:05:08.958Z,94486.66
2023-02-17T01:06:08.619Z,94544.56
2023-02-17T01:07:05.180Z,94546.16
2023-02-17T01:08:01.781Z,94534.88
2023-02-17T01:08:58.340Z,94540.84
2023-02-17T01:09:54.930Z,94548.88
2023-02-17T01:10:52.287Z,94481.28
2023-02-17T01:11:48.928Z,94532.25
2023-02-17T01:12:45.708Z,94532.50
2023-02-17T01:13:42.263Z,94544.47
2023-02-17T01:14:39.003Z,94542.78
2023-02-17T01:15:40.832Z,94539.38
2023-02-17T01:16:39.760Z,94537.06
2023-02-17T01:17:36.348Z,94539.22
2023-02-17T01:18:32.975Z,94455.22
2023-02-17T01:19:29.541Z,94531.53
2023-02-17T01:20:26.220Z,94527.63
2023-02-17T01:21:25.609Z,94538.69
2023-02-17T01:22:22.310Z,94537.78
2023-02-17T01:23:19.478Z,94478.97
2023-02-17T01:24:16.098Z,94520.47
2023-02-17T01:25:12.757Z,94532.69
2023-02-17T01:26:18.262Z,94531.25
2023-02-17T01:27:14.928Z,94523.41
2023-02-17T01:28:15.910Z,94536.94
2023-02-17T01:29:12.481Z,94531.00
2023-02-17T01:30:09.449Z,94533.97
2023-02-17T01:31:08.435Z,94507.75
2023-02-17T01:32:05.357Z,94525.53
2023-02-17T01:33:02.061Z,94530.25
2023-02-17T01:34:01.638Z,94523.75
2023-02-17T01:34:58.240Z,94515.19
2023-02-17T01:35:54.916Z,94528.69
2023-02-17T01:36:51.561Z,94514.00
2023-02-17T01:37:48.234Z,94526.75
2023-02-17T01:38:46.549Z,94469.56
2023-02-17T01:39:43.116Z,94486.91
2023-02-17T01:40:47.299Z,94490.59
2023-02-17T01:41:44.391Z,94520.53
2023-02-17T01:42:41.474Z,94531.16
2023-02-17T01:43:38.100Z,94452.56
2023-02-17T01:44:34.748Z,94528.59
2023-02-17T01:45:46.055Z,94527.63
2023-02-17T01:46:45.230Z,94514.69
2023-02-17T01:47:41.942Z,94521.88
2023-02-17T01:48:49.131Z,94528.56
2023-02-17T01:49:45.729Z,94530.94
2023-02-17T01:50:48.870Z,94535.38
2023-02-17T01:51:50.235Z,94523.69
2023-02-17T01:52:46.976Z,94533.28
2023-02-17T01:53:59.034Z,94527.81
2023-02-17T01:54:59.865Z,94525.06
2023-02-17T01:55:57.100Z,94454.38
2023-02-17T01:56:57.297Z,94475.66
2023-02-17T01:57:58.166Z,94509.75
2023-02-17T01:59:00.579Z,94520.97
2023-02-17T01:59:57.470Z,94515.94
2023-02-17T02:00:56.847Z,94520.16
2023-02-17T02:01:58.652Z,94495.50
2023-02-17T02:02:55.993Z,94519.53
2023-02-17T02:03:53.570Z,94499.81
2023-02-17T02:04:53.321Z,94516.44
2023-02-17T02:05:50.528Z,94519.28
2023-02-17T02:06:47.861Z,94509.31
2023-02-17T02:07:46.659Z,94510.13
2023-02-17T02:08:53.311Z,94482.44
2023-02-17T02:09:53.862Z,94518.53
2023-02-17T02:10:50.419Z,94509.63
2023-02-17T02:11:51.667Z,94510.34
2023-02-17T02:12:48.345Z,94505.34
2023-02-17T02:13:45.046Z,94523.41
2023-02-17T02:14:41.652Z,94508.78
2023-02-17T02:15:47.910Z,94496.69
2023-02-17T02:17:12.466Z,94518.75
2023-02-17T02:18:24.692Z,94519.50
2023-02-17T02:19:30.445Z,94514.06
2023-02-17T02:21:14.703Z,94523.88
2023-02-17T02:22:41.839Z,94514.91
2023-02-17T02:23:58.874Z,94502.13
2023-02-17T02:25:10.490Z,94511.50
2023-02-17T02:26:43.990Z,94509.53
2023-02-17T02:28:00.792Z,94511.38
2023-02-17T02:29:16.322Z,94505.31
2023-02-17T02:30:15.715Z,94509.72
2023-02-17T02:31:12.497Z,94504.03
2023-02-17T02:32:50.434Z,94511.31
2023-02-17T02:33:56.245Z,94517.38
2023-02-17T02:35:18.993Z,94518.19
2023-02-17T02:36:27.316Z,94428.69
2023-02-17T02:37:43.195Z,94446.78
2023-02-17T02:38:42.383Z,94523.03
2023-02-17T02:39:47.751Z,94510.19
2023-02-17T02:40:50.060Z,94512.31
2023-02-17T02:42:00.341Z,94489.25
2023-02-17T02:42:57.517Z,94458.06
2023-02-17T02:43:54.170Z,94458.63
2023-02-17T02:44:51.380Z,94442.94
2023-02-17T02:45:48.545Z,94518.19
2023-02-17T02:46:45.218Z,94516.91
2023-02-17T02:47:46.337Z,94513.75
2023-02-17T02:48:43.937Z,94520.72
2023-02-17T02:49:40.521Z,94468.78
2023-02-17T02:51:04.353Z,94525.00
2023-02-17T02:52:31.816Z,94528.97
2023-02-17T02:53:43.457Z,94517.66
2023-02-17T02:54:48.960Z,94529.53
2023-02-17T02:56:00.028Z,94522.91
2023-02-17T02:57:02.336Z,94519.44
2023-02-17T02:58:37.190Z,94491.22
2023-02-17T03:00:02.459Z,94527.31
2023-02-17T03:01:43.544Z,94526.94
2023-02-17T03:02:59.583Z,94515.13
2023-02-17T03:04:01.868Z,94538.97
2023-02-17T03:05:13.672Z,94502.41
2023-02-17T03:06:29.949Z,94450.47
2023-02-17T03:07:35.047Z,94529.66
2023-02-17T03:08:47.309Z,94537.84
2023-02-17T03:09:43.929Z,94526.50
2023-02-17T03:10:49.229Z,94514.34
2023-02-17T03:11:47.389Z,94528.47
2023-02-17T03:12:44.206Z,94442.63
2023-02-17T03:13:41.133Z,94493.59
2023-02-17T03:14:38.972Z,94530.25
2023-02-17T03:15:36.016Z,94524.97
2023-02-17T03:16:34.490Z,94522.44
2023-02-17T03:17:33.325Z,94533.34
2023-02-17T03:18:32.821Z,94532.84
2023-02-17T03:19:29.508Z,94520.03
2023-02-17T03:20:30.054Z,94539.16
2023-02-17T03:21:35.063Z,94502.31
2023-02-17T03:22:41.721Z,94538.09
2023-02-17T03:23:38.422Z,94547.63
2023-02-17T03:24:35.388Z,94544.06
2023-02-17T03:25:32.117Z,94543.44
2023-02-17T03:26:28.740Z,94536.38
2023-02-17T03:27:25.436Z,94540.72
2023-02-17T03:28:22.068Z,94540.28
2023-02-17T03:29:18.905Z,94537.34
2023-02-17T03:30:15.783Z,94541.03
2023-02-17T03:31:12.485Z,94521.50
2023-02-17T03:32:09.670Z,94528.44
2023-02-17T03:33:06.325Z,94490.09
2023-02-17T03:34:03.342Z,94533.19
2023-02-17T03:34:59.952Z,94501.06
2023-02-17T03:35:56.607Z,94536.41
2023-02-17T03:36:53.321Z,94536.72
2023-02-17T03:37:49.887Z,94542.75
2023-02-17T03:38:47.574Z,94536.41
2023-02-17T03:39:44.212Z,94528.97
2023-02-17T03:40:40.827Z,94529.97
2023-02-17T03:41:37.468Z,94521.59
2023-02-17T03:42:34.346Z,94531.50
2023-02-17T03:43:30.921Z,94528.09
2023-02-17T03:44:27.612Z,94526.19
2023-02-17T03:45:24.269Z,94527.69
2023-02-17T03:46:21.127Z,94537.59
2023-02-17T03:47:17.775Z,94530.44
2023-02-17T03:48:14.447Z,94534.31
2023-02-17T03:49:12.987Z,94536.47
2023-02-17T03:50:09.938Z,94537.88
2023-02-17T03:51:23.626Z,94530.69
2023-02-17T03:52:20.641Z,94464.09
2023-02-17T03:53:17.305Z,94516.19
2023-02-17T03:54:13.972Z,94515.59
2023-02-17T03:55:10.661Z,94511.47
2023-02-17T03:56:07.437Z,94518.97
2023-02-17T03:57:04.230Z,94511.38
2023-02-17T03:58:00.826Z,94495.53
2023-02-17T03:58:57.522Z,94417.91
2023-02-17T03:59:54.120Z,94521.84
2023-02-17T04:00:50.734Z,94525.88
2023-02-17T04:01:47.305Z,94498.00
2023-02-17T04:02:44.267Z,94519.38
2023-02-17T04:03:41.829Z,94518.78
2023-02-17T04:04:39.239Z,94501.31
2023-02-17T04:05:35.841Z,94462.94
2023-02-17T04:06:32.468Z,94510.47
2023-02-17T04:07:29.190Z,94504.97
2023-02-17T04:08:25.958Z,94501.84
2023-02-17T04:09:22.577Z,94448.34
2023-02-17T04:10:19.448Z,94506.41
2023-02-17T04:11:16.110Z,94508.50
2023-02-17T04:12:12.705Z,94497.78
2023-02-17T04:13:09.297Z,94510.38
2023-02-17T04:14:05.886Z,94449.56
2023-02-17T04:15:02.480Z,94497.19
2023-02-17T04:16:01.306Z,94504.34
2023-02-17T04:16:58.047Z,94504.72
2023-02-17T04:17:54.649Z,94507.69
2023-02-17T04:18:51.257Z,94501.47
2023-02-17T04:19:47.856Z,94509.19
2023-02-17T04:20:44.643Z,94499.16
2023-02-17T04:21:41.237Z,94513.78
2023-02-17T04:22:37.811Z,94509.13
2023-02-17T04:23:36.424Z,94483.97
2023-02-17T04:24:32.990Z,94515.91
2023-02-17T04:25:29.604Z,94511.97
2023-02-17T04:26:26.289Z,94512.31
2023-02-17T04:27:22.858Z,94506.00
2023-02-17T04:28:19.833Z,94468.81
2023-02-17T04:29:16.498Z,94520.34
2023-02-17T04:30:13.783Z,94508.81
2023-02-17T04:31:10.596Z,94508.03
2023-02-17T04:32:07.258Z,94479.22
2023-02-17T04:33:04.251Z,94511.53
2023-02-17T04:34:00.848Z,94513.09
2023-02-17T04:34:57.420Z,94518.97
2023-02-17T04:35:59.568Z,94515.28
2023-02-17T04:36:56.260Z,94516.03
2023-02-17T04:37:53.468Z,94524.16
2023-02-17T04:38:50.092Z,94519.91
2023-02-17T04:39:46.737Z,94513.31
2023-02-17T04:40:43.573Z,94521.47
2023-02-17T04:41:40.119Z,94519.69
2023-02-17T04:42:37.417Z,94518.94
2023-02-17T04:43:34.018Z,94513.81
2023-02-17T04:44:30.728Z,94489.56
2023-02-17T04:45:27.406Z,94525.47
2023-02-17T04:46:24.047Z,94502.41
2023-02-17T04:47:20.755Z,94520.13
2023-02-17T04:48:17.703Z,94525.41
2023-02-17T04:49:14.290Z,94461.09
2023-02-17T04:50:11.310Z,94515.31
2023-02-17T04:51:07.928Z,94450.13
2023-02-17T04:52:04.698Z,94523.97
2023-02-17T04:53:04.265Z,94518.81
2023-02-17T04:54:01.265Z,94520.69
2023-02-17T04:54:57.985Z,94523.13
2023-02-17T04:55:54.621Z,94521.19
2023-02-17T04:56:51.192Z,94482.63
2023-02-17T04:57:47.826Z,94519.53
2023-02-17T04:58:44.554Z,94519.97
2023-02-17T04:59:41.134Z,94516.84
2023-02-17T05:00:37.869Z,94522.75
2023-02-17T05:01:34.467Z,94528.47
2023-02-17T05:02:31.716Z,94449.69
2023-02-17T05:03:28.342Z,94524.63
2023-02-17T05:04:25.064Z,94525.47
2023-02-17T05:05:21.806Z,94527.66
2023-02-17T05:06:18.514Z,94536.59
2023-02-17T05:07:15.127Z,94530.00
2023-02-17T05:08:11.760Z,94535.63
2023-02-17T05:09:08.366Z,94489.03
2023-02-17T05:10:05.231Z,94508.63
2023-02-17T05:11:01.905Z,94535.53
2023-02-17T05:11:59.181Z,94479.38
2023-02-17T05:12:55.968Z,94498.06
2023-02-17T05:13:52.602Z,94533.91
2023-02-17T05:14:49.288Z,94535.66
2023-02-17T05:15:46.798Z,94538.66
2023-02-17T05:16:43.655Z,94532.81
2023-02-17T05:17:40.775Z,94541.53
2023-02-17T05:18:37.511Z,94524.81
2023-02-17T05:19:34.352Z,94549.53
2023-02-17T05:20:31.538Z,94524.25
2023-02-17T05:21:28.193Z,94545.75
2023-02-17T05:22:25.548Z,94512.84
2023-02-17T05:23:22.274Z,94548.44
2023-02-17T05:24:18.884Z,94458.16
2023-02-17T05:25:15.607Z,94537.41
2023-02-17T05:26:12.626Z,94450.63
2023-02-17T05:27:09.449Z,94548.22
2023-02-17T05:28:06.087Z,94537.41
2023-02-17T05:29:02.730Z,94545.19
2023-02-17T05:29:59.361Z,94542.00
2023-02-17T05:30:56.046Z,94547.56
2023-02-17T05:31:52.698Z,94558.41
2023-02-17T05:32:49.366Z,94554.59
2023-02-17T05:33:46.008Z,94545.72
2023-02-17T05:34:42.604Z,94551.50
2023-02-17T05:35:39.372Z,94544.75
2023-02-17T05:36:36.377Z,94556.88
2023-02-17T05:37:32.974Z,94554.34
2023-02-17T05:38:29.741Z,94515.28
2023-02-17T05:39:26.412Z,94490.28
2023-02-17T05:40:22.988Z,94548.59
2023-02-17T05:41:20.169Z,94562.16
2023-02-17T05:42:16.886Z,94561.72
2023-02-17T05:43:13.584Z,94564.22
2023-02-17T05:44:10.137Z,94565.06
2023-02-17T05:45:06.914Z,94567.56
2023-02-17T05:46:04.976Z,94564.72
2023-02-17T05:47:01.877Z,94546.75
2023-02-17T05:47:58.531Z,94571.44
2023-02-17T05:48:55.176Z,94556.38
2023-02-17T05:49:51.732Z,94567.28
2023-02-17T05:50:48.426Z,94523.53
2023-02-17T05:51:45.008Z,94568.50
2023-02-17T05:52:41.666Z,94473.28
2023-02-17T05:53:38.202Z,94572.22
2023-02-17T05:54:34.788Z,94570.81
2023-02-17T05:55:31.576Z,94574.28
2023-02-17T05:56:28.270Z,94581.50
2023-02-17T05:57:24.800Z,94577.66
2023-02-17T05:58:21.640Z,94584.44
2023-02-17T05:59:18.489Z,94507.63
2023-02-17T06:00:15.705Z,94581.72
2023-02-17T06:01:13.229Z,94581.59
2023-02-17T06:02:09.993Z,94525.97
2023-02-17T06:03:06.597Z,94577.94
2023-02-17T06:04:03.690Z,94575.53
2023-02-17T06:05:00.395Z,94582.88
2023-02-17T06:05:57.012Z,94572.50
2023-02-17T06:06:53.659Z,94542.09
2023-02-17T06:07:50.290Z,94581.59
2023-02-17T06:08:47.415Z,94591.03
2023-02-17T06:09:45.337Z,94583.38
2023-02-17T06:10:43.679Z,94585.00
2023-02-17T06:11:40.368Z,94559.31
2023-02-17T06:12:36.959Z,94584.38
2023-02-17T06:13:33.645Z,94582.22
2023-02-17T06:14:30.546Z,94584.78
2023-02-17T06:15:27.149Z,94591.84
2023-02-17T06:16:23.937Z,94575.81
2023-02-17T06:17:20.639Z,94589.50
2023-02-17T06:18:17.640Z,94604.63
2023-02-17T06:19:14.255Z,94594.66
2023-02-17T06:20:12.856Z,94561.66
2023-02-17T06:21:09.485Z,94602.38
2023-02-17T06:22:06.155Z,94601.69
2023-02-17T06:23:02.733Z,94598.72
2023-02-17T06:23:59.341Z,94605.63
2023-02-17T06:24:55.992Z,94605.06
2023-02-17T06:25:53.086Z,94589.28
2023-02-17T06:26:49.703Z,94600.63
2023-02-17T06:27:46.230Z,94592.13
2023-02-17T06:28:42.821Z,94592.03
2023-02-17T06:29:39.373Z,94590.38
2023-02-17T06:30:35.938Z,94602.63
2023-02-17T06:31:32.691Z,94596.69
2023-02-17T06:32:29.377Z,94596.03
2023-02-17T06:33:26.292Z,94597.19
2023-02-17T06:34:22.889Z,94584.84
2023-02-17T06:35:19.676Z,94595.31
2023-02-17T06:36:16.582Z,94593.00
2023-02-17T06:37:13.264Z,94598.41
2023-02-17T06:38:09.869Z,94528.59
2023-02-17T06:39:06.466Z,94535.56
2023-02-17T06:40:03.739Z,94608.06
2023-02-17T06:41:00.338Z,94601.09
2023-02-17T06:41:56.947Z,94608.94
2023-02-17T06:42:53.573Z,94606.59
2023-02-17T06:43:50.152Z,94611.59
2023-02-17T06:44:46.750Z,94610.28
2023-02-17T06:45:43.440Z,94597.78
2023-02-17T06:46:40.151Z,94524.19
2023-02-17T06:47:36.770Z,94590.13
2023-02-17T06:48:33.352Z,94600.03
2023-02-17T06:49:29.912Z,94605.06
2023-02-17T06:50:26.574Z,94607.28
2023-02-17T06:51:23.145Z,94605.59
2023-02-17T06:52:19.704Z,94598.84
2023-02-17T06:53:16.378Z,94595.88
2023-02-17T06:54:12.941Z,94574.38
2023-02-17T06:55:09.829Z,94621.47
2023-02-17T06:56:06.857Z,94607.25
2023-02-17T06:57:03.847Z,94609.91
2023-02-17T06:58:00.493Z,94607.16
2023-02-17T06:58:57.072Z,94609.66
2023-02-17T06:59:53.823Z,94616.50
2023-02-17T07:00:51.632Z,94606.41
2023-02-17T07:01:49.899Z,94604.53
2023-02-17T07:02:46.820Z,94604.13
2023-02-17T07:03:43.618Z,94606.31
2023-02-17T07:04:41.515Z,94622.09
2023-02-17T07:05:40.029Z,94609.16
2023-02-17T07:06:36.643Z,94608.72
2023-02-17T07:07:33.307Z,94588.53
2023-02-17T07:08:29.964Z,94612.16
2023-02-17T07:09:26.541Z,94580.19
2023-02-17T07:10:23.154Z,94555.28
2023-02-17T07:11:20.645Z,94615.69
2023-02-17T07:12:17.313Z,94564.66
2023-02-17T07:13:13.859Z,94565.09
2023-02-17T07:14:10.539Z,94608.06
2023-02-17T07:15:09.472Z,94613.63
2023-02-17T07:16:10.242Z,94610.44
2023-02-17T07:17:07.139Z,94608.75
2023-02-17T07:18:03.902Z,94608.50
2023-02-17T07:19:02.891Z,94554.22
2023-02-17T07:19:59.529Z,94611.78
2023-02-17T07:20:56.492Z,94614.81
2023-02-17T07:21:53.123Z,94611.63
2023-02-17T07:22:49.840Z,94610.97
2023-02-17T07:23:46.610Z,94605.41
2023-02-17T07:24:43.285Z,94619.75
2023-02-17T07:25:39.885Z,94619.78
2023-02-17T07:26:37.319Z,94592.97
2023-02-17T07:27:36.685Z,94616.00
2023-02-17T07:28:33.233Z,94573.84
2023-02-17T07:29:29.805Z,94626.25
2023-02-17T07:30:26.427Z,94618.56
2023-02-17T07:31:23.197Z,94606.34
2023-02-17T07:32:19.833Z,94596.34
2023-02-17T07:33:16.644Z,94587.50
2023-02-17T07:34:13.286Z,94600.50
2023-02-17T07:35:10.675Z,94511.59
2023-02-17T07:36:15.082Z,94599.16
2023-02-17T07:37:11.665Z,94624.91
2023-02-17T07:38:08.560Z,94629.25
2023-02-17T07:39:05.369Z,94624.91
2023-02-17T07:40:02.014Z,94615.22
2023-02-17T07:41:04.795Z,94575.34
2023-02-17T07:42:01.487Z,94566.69
2023-02-17T07:42:58.499Z,94617.13
2023-02-17T07:43:57.218Z,94632.06
2023-02-17T07:44:53.873Z,94627.19
2023-02-17T07:45:54.765Z,94624.31
2023-02-17T07:46:51.411Z,94627.41
2023-02-17T07:47:48.025Z,94569.81
2023-02-17T07:48:44.892Z,94637.63
2023-02-17T07:49:41.601Z,94632.25
2023-02-17T07:50:38.270Z,94634.69
2023-02-17T07:51:35.107Z,94633.00
2023-02-17T07:52:31.748Z,94633.19
2023-02-17T07:53:28.382Z,94634.09
2023-02-17T07:54:25.030Z,94636.28
2023-02-17T07:55:21.561Z,94634.63
2023-02-17T07:56:21.555Z,94639.38
2023-02-17T07:57:18.197Z,94636.84
2023-02-17T07:58:14.904Z,94639.66
2023-02-17T07:59:13.351Z,94635.69
2023-02-17T08:00:10.999Z,94634.47
2023-02-17T08:01:12.173Z,94632.25
2023-02-17T08:02:11.841Z,94627.66
2023-02-17T08:03:10.792Z,94630.22
2023-02-17T08:04:07.451Z,94629.75
2023-02-17T08:05:04.171Z,94631.31
2023-02-17T08:06:00.845Z,94633.31
2023-02-17T08:06:57.503Z,94617.13
2023-02-17T08:08:14.107Z,94632.59
2023-02-17T08:09:30.487Z,94634.81
2023-02-17T08:10:45.797Z,94631.25
2023-02-17T08:12:02.036Z,94624.47
2023-02-17T08:13:18.167Z,94634.31
2023-02-17T08:14:15.068Z,94635.91
2023-02-17T08:15:12.091Z,94576.50
2023-02-17T08:16:08.953Z,94631.53
2023-02-17T08:17:06.614Z,94602.56
2023-02-17T08:18:05.019Z,94636.75
2023-02-17T08:19:06.096Z,94613.00
2023-02-17T08:20:08.803Z,94638.13
2023-02-17T08:21:06.404Z,94619.00
2023-02-17T08:22:03.762Z,94619.44
2023-02-17T08:23:01.161Z,94633.88
2023-02-17T08:23:57.788Z,94641.41
2023-02-17T08:24:54.424Z,94629.22
2023-02-17T08:25:51.090Z,94631.59
2023-02-17T08:26:51.944Z,94646.28
2023-02-17T08:27:48.623Z,94625.81
2023-02-17T08:28:45.613Z,94632.41
2023-02-17T08:29:42.480Z,94619.56
2023-02-17T08:30:39.363Z,94546.75
2023-02-17T08:31:36.952Z,94625.03
2023-02-17T08:32:33.710Z,94632.38
2023-02-17T08:33:30.421Z,94593.34
2023-02-17T08:34:28.272Z,94636.88
2023-02-17T08:35:25.876Z,94630.34
2023-02-17T08:36:26.686Z,94602.81
2023-02-17T08:37:23.339Z,94635.53
2023-02-17T08:38:20.132Z,94637.09
2023-02-17T08:39:18.539Z,94643.03
2023-02-17T08:40:15.598Z,94633.13
2023-02-17T08:41:14.634Z,94642.19
2023-02-17T08:42:12.189Z,94630.84
2023-02-17T08:43:09.815Z,94630.22
2023-02-17T08:44:13.683Z,94628.16
2023-02-17T08:45:12.746Z,94610.16
2023-02-17T08:46:11.101Z,94625.94
2023-02-17T08:47:10.536Z,94598.22
2023-02-17T08:48:07.207Z,94616.13
2023-02-17T08:49:04.984Z,94626.69
2023-02-17T08:50:02.573Z,94625.09
2023-02-17T08:50:59.207Z,94632.69
2023-02-17T08:51:55.823Z,94627.88
2023-02-17T08:52:52.429Z,94632.84
2023-02-17T08:53:50.840Z,94607.94
2023-02-17T08:54:47.464Z,94578.22
2023-02-17T08:55:49.237Z,94595.09
2023-02-17T08:56:46.691Z,94629.22
2023-02-17T08:57:43.753Z,94627.34
2023-02-17T08:58:40.531Z,94627.66
2023-02-17T08:59:37.178Z,94629.56
2023-02-17T09:00:33.880Z,94625.75
2023-02-17T09:01:31.474Z,94633.38
2023-02-17T09:02:28.061Z,94629.75
2023-02-17T09:03:24.844Z,94634.69
2023-02-17T09:04:21.593Z,94627.69
2023-02-17T09:05:18.624Z,94621.72
2023-02-17T09:06:16.225Z,94622.03
2023-02-17T09:07:15.088Z,94626.69
2023-02-17T09:08:11.893Z,94626.13
2023-02-17T09:09:11.357Z,94639.34
2023-02-17T09:10:09.597Z,94626.13
2023-02-17T09:11:09.167Z,94632.78
2023-02-17T09:12:06.493Z,94629.69
2023-02-17T09:13:03.742Z,94631.28
2023-02-17T09:14:00.557Z,94633.44
2023-02-17T09:14:57.155Z,94625.81
2023-02-17T09:15:54.713Z,94616.44
2023-02-17T09:16:52.709Z,94622.16
2023-02-17T09:17:49.488Z,94631.69
2023-02-17T09:18:46.474Z,94549.81
2023-02-17T09:19:43.229Z,94634.28
2023-02-17T09:20:39.945Z,94613.69
2023-02-17T09:21:36.584Z,94628.31
2023-02-17T09:22:33.233Z,94627.06
2023-02-17T09:23:29.827Z,94629.97
2023-02-17T09:24:26.523Z,94618.13
2023-02-17T09:25:23.385Z,94596.59
2023-02-17T09:26:20.808Z,94613.56
2023-02-17T09:27:17.444Z,94625.56
2023-02-17T09:28:14.179Z,94577.75
2023-02-17T09:29:10.833Z,94619.19
2023-02-17T09:30:08.108Z,94615.31
2023-02-17T09:31:19.995Z,94621.38
2023-02-17T09:32:16.834Z,94618.69
2023-02-17T09:33:13.446Z,94615.97
2023-02-17T09:34:10.171Z,94619.69
2023-02-17T09:35:07.480Z,94610.25
2023-02-17T09:36:06.206Z,94555.63
2023-02-17T09:37:03.355Z,94614.75
2023-02-17T09:38:00.761Z,94618.53
2023-02-17T09:38:57.977Z,94613.09
2023-02-17T09:39:54.672Z,94593.56
2023-02-17T09:40:51.408Z,94614.53
2023-02-17T09:41:52.314Z,94611.16
2023-02-17T09:42:49.574Z,94582.09
2023-02-17T09:43:46.540Z,94575.56
2023-02-17T09:44:47.150Z,94603.59
2023-02-17T09:45:49.957Z,94610.84
2023-02-17T09:47:12.396Z,94606.50
2023-02-17T09:48:15.648Z,94609.53
2023-02-17T09:49:26.741Z,94607.06
2023-02-17T09:50:33.947Z,94602.47
2023-02-17T09:51:39.411Z,94593.13
2023-02-17T09:52:49.197Z,94605.84
2023-02-17T09:53:53.071Z,94599.78
2023-02-17T09:55:01.070Z,94608.56
2023-02-17T09:56:01.734Z,94603.50
2023-02-17T09:57:02.107Z,94594.75
2023-02-17T09:58:04.565Z,94604.75
2023-02-17T09:59:06.302Z,94600.97
2023-02-17T10:00:10.989Z,94581.78
2023-02-17T10:01:16.273Z,94594.06
2023-02-17T10:02:54.836Z,94572.13
2023-02-17T10:04:06.789Z,94595.47
2023-02-17T10:05:07.592Z,94587.81
2023-02-17T10:06:23.022Z,94587.72
2023-02-17T10:07:42.710Z,94595.28
2023-02-17T10:08:49.225Z,94562.72
2023-02-17T10:09:54.030Z,94591.94
2023-02-17T10:11:24.066Z,94574.66
2023-02-17T10:12:26.887Z,94566.97
2023-02-17T10:13:27.587Z,94576.97
2023-02-17T10:14:45.679Z,94574.75
2023-02-17T10:15:48.284Z,94515.13
2023-02-17T10:16:54.188Z,94570.75
2023-02-17T10:17:53.784Z,94564.13
2023-02-17T10:19:05.558Z,94533.81
2023-02-17T10:20:07.552Z,94558.53
2023-02-17T10:21:25.158Z,94557.69
2023-02-17T10:22:24.463Z,94571.56
2023-02-17T10:23:30.537Z,94574.94
2023-02-17T10:24:27.151Z,94569.22
2023-02-17T10:25:41.483Z,94571.59
2023-02-17T10:26:47.965Z,94567.31
2023-02-17T10:28:00.146Z,94566.00
2023-02-17T10:29:07.442Z,94566.91
2023-02-17T10:30:36.525Z,94563.56
2023-02-17T10:31:54.308Z,94573.31
2023-02-17T10:32:53.871Z,94569.66
2023-02-17T10:34:12.989Z,94566.00
2023-02-17T10:35:24.552Z,94558.63
2023-02-17T10:36:34.043Z,94572.06
2023-02-17T10:37:42.447Z,94561.94
2023-02-17T10:38:44.766Z,94559.06
2023-02-17T10:39:47.776Z,94546.94
2023-02-17T10:40:47.812Z,94553.13
2023-02-17T10:41:48.234Z,94508.53
2023-02-17T10:42:46.056Z,94552.25
2023-02-17T10:43:44.766Z,94533.28
2023-02-17T10:44:41.508Z,94556.19
2023-02-17T10:45:45.176Z,94552.47
2023-02-17T10:46:43.429Z,94554.50
2023-02-17T10:47:40.884Z,94533.84
2023-02-17T10:48:58.778Z,94547.28
2023-02-17T10:49:57.270Z,94551.34
2023-02-17T10:50:57.768Z,94546.41
2023-02-17T10:51:54.543Z,94558.41
2023-02-17T10:52:51.460Z,94527.81
2023-02-17T10:53:52.993Z,94509.91
2023-02-17T10:54:52.530Z,94543.63
2023-02-17T10:56:23.805Z,94554.31
2023-02-17T10:57:25.082Z,94535.16
2023-02-17T10:58:55.798Z,94546.09
2023-02-17T10:59:52.362Z,94532.97
2023-02-17T11:00:54.240Z,94534.91
2023-02-17T11:01:51.249Z,94535.09
2023-02-17T11:02:52.878Z,94544.22
2023-02-17T11:04:13.482Z,94543.50
2023-02-17T11:05:25.397Z,94536.66
2023-02-17T11:06:23.281Z,94530.97
2023-02-17T11:07:26.675Z,94542.97
2023-02-17T11:08:32.257Z,94542.91
2023-02-17T11:09:32.067Z,94535.16
2023-02-17T11:10:34.871Z,94488.19
2023-02-17T11:11:35.142Z,94533.22
2023-02-17T11:12:41.300Z,94529.59
2023-02-17T11:13:43.896Z,94527.69
2023-02-17T11:14:50.279Z,94519.00
2023-02-17T11:15:47.803Z,94519.34
2023-02-17T11:16:47.409Z,94516.88
2023-02-17T11:17:45.517Z,94514.19
2023-02-17T11:18:47.601Z,94529.22
2023-02-17T11:19:55.760Z,94523.78
2023-02-17T11:21:01.259Z,94521.34
2023-02-17T11:21:59.871Z,94520.22
2023-02-17T11:23:21.654Z,94514.00
2023-02-17T11:24:18.442Z,94494.59
2023-02-17T11:25:30.070Z,94481.38
2023-02-17T11:26:30.616Z,94524.44
2023-02-17T11:27:27.419Z,94519.16
2023-02-17T11:28:26.038Z,94510.97
2023-02-17T11:29:23.422Z,94516.94
2023-02-17T11:30:20.621Z,94520.50
2023-02-17T11:31:27.328Z,94502.25
2023-02-17T11:32:34.421Z,94501.44
2023-02-17T11:33:40.658Z,94502.34
2023-02-17T11:34:40.246Z,94501.28
2023-02-17T11:35:36.828Z,94510.44
2023-02-17T11:36:33.464Z,94507.16
2023-02-17T11:37:32.423Z,94502.91
2023-02-17T11:38:46.350Z,94510.78
2023-02-17T11:39:53.534Z,94507.91
2023-02-17T11:40:57.785Z,94508.75
2023-02-17T11:41:54.585Z,94496.31